createdAt,value
2022-09-22T00:01:26.338Z,98112.99
2022-09-22T00:04:01.850Z,98114.56
2022-09-22T00:06:55.013Z,98117.36
2022-09-22T00:09:27.438Z,98110.45
2022-09-22T00:11:59.523Z,98112.53
2022-09-22T00:14:32.011Z,98112.15
2022-09-22T00:17:05.438Z,98110.64
2022-09-22T00:19:39.468Z,98106.36
2022-09-22T00:22:11.620Z,98108.62
2022-09-22T00:24:44.638Z,98113.82
2022-09-22T00:27:16.870Z,98115.64
2022-09-22T00:29:51.169Z,98115.29
2022-09-22T00:32:23.500Z,98117.67
2022-09-22T00:34:55.910Z,98116.52
2022-09-22T00:37:28.059Z,98115.16
2022-09-22T00:40:00.573Z,98111.71
2022-09-22T00:42:32.832Z,98111.54
2022-09-22T00:45:06.527Z,98112.93
2022-09-22T00:47:38.456Z,98116.21
2022-09-22T00:50:18.207Z,98116.98
2022-09-22T00:52:52.617Z,98118.89
2022-09-22T00:55:31.560Z,98115.94
2022-09-22T00:58:08.038Z,98116.45
2022-09-22T01:00:40.572Z,98116.13
2022-09-22T01:03:16.048Z,98118.02
2022-09-22T01:05:51.739Z,98116.49
2022-09-22T01:08:25.529Z,98112.02
2022-09-22T01:10:59.828Z,98114.75
2022-09-22T01:13:39.390Z,98114.44
2022-09-22T01:16:31.695Z,98116.85
2022-09-22T01:19:23.798Z,98118.23
2022-09-22T01:22:06.675Z,98117.42
2022-09-22T01:25:08.729Z,98116.23
2022-09-22T01:28:28.302Z,98115.14
2022-09-22T01:31:06.490Z,98116.30
2022-09-22T01:33:46.469Z,98111.61
2022-09-22T01:36:26.110Z,98111.38
2022-09-22T01:39:07.795Z,98108.59
2022-09-22T01:41:51.978Z,98108.09
2022-09-22T01:44:32.953Z,98108.38
2022-09-22T01:47:11.248Z,98110.91
2022-09-22T01:49:49.170Z,98109.00
2022-09-22T01:52:25.139Z,98110.85
2022-09-22T01:55:01.259Z,98112.19
2022-09-22T01:57:40.752Z,98110.44
2022-09-22T02:00:14.428Z,98112.30
2022-09-22T02:02:52.989Z,98108.68
2022-09-22T02:05:30.269Z,98109.85
2022-09-22T02:08:06.258Z,98111.23
2022-09-22T02:10:45.828Z,98112.60
2022-09-22T02:13:18.078Z,98111.20
2022-09-22T02:16:02.111Z,98109.30
2022-09-22T02:18:37.898Z,98107.01
2022-09-22T02:21:10.701Z,98102.88
2022-09-22T02:23:43.048Z,98103.74
2022-09-22T02:26:23.857Z,98103.58
2022-09-22T02:29:02.771Z,98107.38
2022-09-22T02:31:37.947Z,98107.36
2022-09-22T02:34:10.660Z,98109.10
2022-09-22T02:36:52.258Z,98108.06
2022-09-22T02:39:34.588Z,98110.34
2022-09-22T02:42:25.597Z,98109.84
2022-09-22T02:45:07.309Z,98114.16
2022-09-22T02:47:43.535Z,98111.75
2022-09-22T02:50:18.897Z,98112.95
2022-09-22T02:52:58.107Z,98108.64
2022-09-22T02:55:30.208Z,98109.20
2022-09-22T02:58:02.387Z,98108.17
2022-09-22T03:00:34.658Z,98106.23
2022-09-22T03:03:07.149Z,98107.06
2022-09-22T03:05:39.298Z,98110.20
2022-09-22T03:08:11.582Z,98108.91
2022-09-22T03:10:43.860Z,98109.29
2022-09-22T03:13:17.416Z,98111.55
2022-09-22T03:15:50.089Z,98114.69
2022-09-22T03:18:22.258Z,98118.66
2022-09-22T03:20:56.637Z,98115.91
2022-09-22T03:23:29.111Z,98112.14
2022-09-22T03:26:01.207Z,98112.17
2022-09-22T03:28:33.457Z,98114.41
2022-09-22T03:31:07.959Z,98113.87
2022-09-22T03:33:40.617Z,98116.17
2022-09-22T03:36:14.269Z,98116.33
2022-09-22T03:38:46.450Z,98115.78
2022-09-22T03:41:18.805Z,98117.52
2022-09-22T03:43:51.166Z,98114.06
2022-09-22T03:46:23.237Z,98110.64
2022-09-22T03:48:56.190Z,98109.10
2022-09-22T03:51:28.469Z,98109.29
2022-09-22T03:54:04.772Z,98103.45
2022-09-22T03:56:37.588Z,98106.22
2022-09-22T03:59:10.658Z,98110.50
2022-09-22T04:01:42.867Z,98112.21
2022-09-22T04:04:15.188Z,98112.55
2022-09-22T04:06:47.241Z,98113.62
2022-09-22T04:09:19.428Z,98109.84
2022-09-22T04:11:51.548Z,98110.51
2022-09-22T04:14:24.075Z,98108.09
2022-09-22T04:16:58.904Z,98108.08
2022-09-22T04:19:36.098Z,98108.60
2022-09-22T04:22:08.513Z,98113.11
2022-09-22T04:24:40.998Z,98112.92
2022-09-22T04:27:20.086Z,98114.65
2022-09-22T04:29:53.039Z,98111.58
2022-09-22T04:32:25.349Z,98112.61
2022-09-22T04:34:59.878Z,98112.81
2022-09-22T04:37:33.800Z,98113.17
2022-09-22T04:40:12.409Z,98114.21
2022-09-22T04:42:48.171Z,98114.08
2022-09-22T04:45:20.607Z,98114.39
2022-09-22T04:47:56.470Z,98116.13
2022-09-22T04:50:28.972Z,98117.84
2022-09-22T04:53:01.166Z,98118.37
2022-09-22T04:55:33.296Z,98119.60
2022-09-22T04:58:06.058Z,98118.05
2022-09-22T05:00:38.899Z,98116.89
2022-09-22T05:03:16.447Z,98120.70
2022-09-22T05:05:52.306Z,98113.67
2022-09-22T05:08:24.629Z,98116.45
2022-09-22T05:10:57.739Z,98116.80
2022-09-22T05:13:30.625Z,98114.95
2022-09-22T05:16:03.465Z,98116.31
2022-09-22T05:18:36.157Z,98125.64
2022-09-22T05:21:08.862Z,98127.55
2022-09-22T05:23:41.505Z,98128.24
2022-09-22T05:26:14.344Z,98129.08
2022-09-22T05:28:46.768Z,98131.30
2022-09-22T05:31:19.657Z,98131.44
2022-09-22T05:33:52.128Z,98129.29
2022-09-22T05:36:24.438Z,98125.11
2022-09-22T05:38:57.664Z,98124.38
2022-09-22T05:41:30.470Z,98129.70
2022-09-22T05:44:03.007Z,98132.80
2022-09-22T05:46:35.439Z,98133.30
2022-09-22T05:49:07.689Z,98142.08
2022-09-22T05:51:42.969Z,98145.30
2022-09-22T05:54:18.040Z,98144.77
2022-09-22T05:56:52.329Z,98142.69
2022-09-22T05:59:24.783Z,98145.77
2022-09-22T06:02:02.499Z,98148.15
2022-09-22T06:04:38.649Z,98153.31
2022-09-22T06:07:11.045Z,98155.36
2022-09-22T06:09:43.348Z,98157.38
2022-09-22T06:12:15.657Z,98158.89
2022-09-22T06:14:48.138Z,98157.33
2022-09-22T06:17:21.091Z,98163.30
2022-09-22T06:19:53.392Z,98161.07
2022-09-22T06:22:27.602Z,98163.15
2022-09-22T06:25:00.571Z,98163.13
2022-09-22T06:27:33.628Z,98162.44
2022-09-22T06:30:06.401Z,98165.30
2022-09-22T06:32:39.769Z,98161.51
2022-09-22T06:35:15.318Z,98160.08
2022-09-22T06:37:48.869Z,98162.75
2022-09-22T06:40:21.306Z,98160.46
2022-09-22T06:42:57.582Z,98164.38
2022-09-22T06:45:32.181Z,98164.50
2022-09-22T06:48:09.534Z,98166.61
2022-09-22T06:50:42.949Z,98162.29
2022-09-22T06:53:32.029Z,98167.11
2022-09-22T06:56:08.890Z,98172.48
2022-09-22T06:59:05.593Z,98167.33
2022-09-22T07:01:34.025Z,98169.42
2022-09-22T07:04:06.606Z,98167.70
2022-09-22T07:06:40.402Z,98168.50
2022-09-22T07:09:12.981Z,98168.25
2022-09-22T07:11:46.036Z,98172.27
2022-09-22T07:14:19.863Z,98175.92
2022-09-22T07:16:52.856Z,98176.12
2022-09-22T07:19:25.370Z,98175.55
2022-09-22T07:22:05.180Z,98178.19
2022-09-22T07:24:37.536Z,98181.10
2022-09-22T07:27:11.083Z,98179.02
2022-09-22T07:29:46.381Z,98178.98
2022-09-22T07:32:18.810Z,98179.61
2022-09-22T07:34:53.038Z,98178.84
2022-09-22T07:37:25.606Z,98174.10
2022-09-22T07:39:58.139Z,98174.90
2022-09-22T07:42:30.317Z,98175.66
2022-09-22T07:45:15.409Z,98175.77
2022-09-22T07:48:05.950Z,98180.38
2022-09-22T07:50:38.309Z,98178.40
2022-09-22T07:53:13.150Z,98174.87
2022-09-22T07:55:46.126Z,98173.20
2022-09-22T07:58:18.699Z,98172.24
2022-09-22T08:00:51.820Z,98173.02
2022-09-22T08:03:24.137Z,98170.60
2022-09-22T08:06:06.335Z,98169.07
2022-09-22T08:08:39.901Z,98165.40
2022-09-22T08:11:15.262Z,98170.69
2022-09-22T08:13:53.616Z,98171.99
2022-09-22T08:16:29.704Z,98173.70
2022-09-22T08:19:03.952Z,98174.10
2022-09-22T08:21:36.810Z,98175.95
2022-09-22T08:24:13.810Z,98185.40
2022-09-22T08:26:48.465Z,98186.55
2022-09-22T08:29:21.612Z,98189.08
2022-09-22T08:31:54.744Z,98187.36
2022-09-22T08:34:27.239Z,98190.13
2022-09-22T08:37:00.185Z,98193.77
2022-09-22T08:39:32.529Z,98190.15
2022-09-22T08:42:12.051Z,98192.27
2022-09-22T08:44:53.694Z,98192.90
2022-09-22T08:47:52.258Z,98190.86
2022-09-22T08:50:48.689Z,98190.52
2022-09-22T08:53:23.636Z,98193.36
2022-09-22T08:56:07.218Z,98193.15
2022-09-22T08:58:45.419Z,98188.20
2022-09-22T09:01:36.911Z,98192.27
2022-09-22T09:04:27.499Z,98190.05
2022-09-22T09:07:07.563Z,98188.81
2022-09-22T09:10:06.806Z,98189.63
2022-09-22T09:12:53.719Z,98184.19
2022-09-22T09:15:38.389Z,98185.45
2022-09-22T09:18:17.862Z,98187.14
2022-09-22T09:20:53.724Z,98186.80
2022-09-22T09:26:30.620Z,98190.95
2022-09-22T09:29:06.654Z,98194.40
2022-09-22T09:31:45.164Z,98194.38
2022-09-22T09:34:19.531Z,98195.36
2022-09-22T09:36:57.541Z,98196.08
2022-09-22T09:39:33.499Z,98205.72
2022-09-22T09:42:17.130Z,98200.95
2022-09-22T09:44:53.703Z,98203.80
2022-09-22T09:47:46.189Z,98201.81
2022-09-22T09:50:20.268Z,98201.65
2022-09-22T09:52:53.449Z,98203.61
2022-09-22T09:55:28.147Z,98201.92
2022-09-22T09:58:11.081Z,98200.89
2022-09-22T10:03:55.010Z,98201.50
2022-09-22T10:06:30.168Z,98202.11
2022-09-22T10:09:02.477Z,98200.29
2022-09-22T10:11:35.340Z,98197.52
2022-09-22T10:14:20.209Z,98196.09
2022-09-22T10:16:56.328Z,98200.36
2022-09-22T10:19:31.387Z,98203.30
2022-09-22T10:22:24.929Z,98200.94
2022-09-22T10:25:00.277Z,98199.11
2022-09-22T10:27:33.957Z,98197.14
2022-09-22T10:30:26.223Z,98195.11
2022-09-22T10:33:13.356Z,98193.98
2022-09-22T10:35:48.080Z,98193.39
2022-09-22T10:38:23.174Z,98192.11
2022-09-22T10:41:05.550Z,98189.89
2022-09-22T10:43:45.391Z,98189.25
2022-09-22T10:46:44.336Z,98189.63
2022-09-22T10:49:29.176Z,98183.69
2022-09-22T10:52:11.408Z,98182.45
2022-09-22T10:55:04.177Z,98178.38
2022-09-22T10:57:58.870Z,98173.77
2022-09-22T11:00:38.218Z,98168.56
2022-09-22T11:03:31.031Z,98168.02
2022-09-22T11:06:43.190Z,98166.88
2022-09-22T11:09:42.612Z,98166.06
2022-09-22T11:12:26.800Z,98156.64
2022-09-22T11:15:17.378Z,98155.16
2022-09-22T11:18:08.450Z,98160.98
2022-09-22T11:20:43.695Z,98162.64
2022-09-22T11:23:44.274Z,98159.54
2022-09-22T11:26:37.474Z,98157.48
2022-09-22T11:29:33.988Z,98160.60
2022-09-22T11:32:14.920Z,98154.98
2022-09-22T11:35:12.399Z,98156.09
2022-09-22T11:38:02.253Z,98151.05
2022-09-22T11:40:47.939Z,98149.43
2022-09-22T11:43:40.888Z,98147.58
2022-09-22T11:46:23.372Z,98148.17
2022-09-22T11:49:11.830Z,98148.67
2022-09-22T11:52:03.295Z,98145.39
2022-09-22T11:55:00.511Z,98142.45
2022-09-22T11:57:38.420Z,98144.92
2022-09-22T12:00:17.689Z,98139.70
2022-09-22T12:03:01.983Z,98145.45
2022-09-22T12:05:41.873Z,98141.48
2022-09-22T12:08:19.068Z,98144.80
2022-09-22T12:10:52.598Z,98140.69
2022-09-22T12:13:24.409Z,98140.11
2022-09-22T12:16:08.609Z,98135.38
2022-09-22T12:18:46.640Z,98133.50
2022-09-22T12:21:43.199Z,98129.59
2022-09-22T12:24:31.500Z,98124.80
2022-09-22T12:27:14.128Z,98115.95
2022-09-22T12:29:46.882Z,98116.15
2022-09-22T12:32:29.338Z,98112.96
2022-09-22T12:35:02.234Z,98109.45
2022-09-22T12:37:37.941Z,98109.25
2022-09-22T12:40:35.895Z,98108.56
2022-09-22T12:43:15.822Z,98105.73
2022-09-22T12:45:49.137Z,98109.80
2022-09-22T12:48:24.667Z,98110.98
2022-09-22T12:51:16.040Z,98103.16
2022-09-22T12:53:48.147Z,98096.48
2022-09-22T12:56:46.800Z,98099.73
2022-09-22T13:00:07.380Z,98098.40
2022-09-22T13:02:46.326Z,98097.20
2022-09-22T13:05:47.185Z,98094.63
2022-09-22T13:08:27.308Z,98094.30
2022-09-22T13:11:02.340Z,98090.73
2022-09-22T13:13:45.317Z,98091.75
2022-09-22T13:16:40.002Z,98093.05
2022-09-22T13:19:16.970Z,98093.19
2022-09-22T13:21:50.288Z,98093.98
2022-09-22T13:24:27.343Z,98095.12
2022-09-22T13:27:08.670Z,98094.14
2022-09-22T13:29:41.418Z,98094.92
2022-09-22T13:32:27.129Z,98094.56
2022-09-22T13:35:00.667Z,98098.60
2022-09-22T13:37:33.638Z,98094.08
2022-09-22T13:40:11.600Z,98094.56
2022-09-22T13:42:46.391Z,98094.33
2022-09-22T13:45:24.269Z,98086.97
2022-09-22T13:48:02.670Z,98086.70
2022-09-22T13:50:49.467Z,98086.52
2022-09-22T13:53:24.110Z,98089.11
2022-09-22T13:55:57.429Z,98086.27
2022-09-22T13:58:36.622Z,98084.52
2022-09-22T14:01:17.549Z,98087.14
2022-09-22T14:03:51.210Z,98087.48
2022-09-22T14:06:26.265Z,98087.16
2022-09-22T14:09:00.752Z,98085.77
2022-09-22T14:11:35.399Z,98089.30
2022-09-22T14:14:08.647Z,98091.59
2022-09-22T14:16:48.889Z,98090.07
2022-09-22T14:19:23.539Z,98089.91
2022-09-22T14:22:00.359Z,98087.42
2022-09-22T14:24:34.047Z,98090.88
2022-09-22T14:27:08.939Z,98094.94
2022-09-22T14:29:43.217Z,98093.08
2022-09-22T14:32:25.860Z,98089.35
2022-09-22T14:35:00.689Z,98096.38
2022-09-22T14:37:37.228Z,98098.95
2022-09-22T14:40:19.118Z,98096.46
2022-09-22T14:43:09.080Z,98098.48
2022-09-22T14:46:06.065Z,98100.87
2022-09-22T14:48:41.162Z,98099.09
2022-09-22T14:51:20.658Z,98103.73
2022-09-22T14:54:05.872Z,98103.98
2022-09-22T14:56:38.534Z,98103.30
2022-09-22T14:59:31.769Z,98101.63
2022-09-22T15:02:23.218Z,98100.69
2022-09-22T15:04:58.090Z,98103.13
2022-09-22T15:07:33.526Z,98104.48
2022-09-22T15:10:09.343Z,98098.39
2022-09-22T15:12:48.690Z,98097.33
2022-09-22T15:15:26.191Z,98095.49
2022-09-22T15:18:20.775Z,98092.99
2022-09-22T15:20:57.659Z,98090.80
2022-09-22T15:23:34.397Z,98092.45
2022-09-22T15:26:12.265Z,98092.65
2022-09-22T15:28:45.475Z,98094.86
2022-09-22T15:31:22.669Z,98095.09
2022-09-22T15:34:01.736Z,98096.48
2022-09-22T15:36:40.099Z,98089.91
2022-09-22T15:39:22.066Z,98093.87
2022-09-22T15:41:55.146Z,98092.35
2022-09-22T15:44:28.758Z,98093.56
2022-09-22T15:47:01.569Z,98093.00
2022-09-22T15:49:36.658Z,98094.02
2022-09-22T15:52:11.437Z,98089.42
2022-09-22T15:54:47.824Z,98089.27
2022-09-22T15:57:21.262Z,98083.51
2022-09-22T15:59:53.531Z,98084.95
2022-09-22T16:02:28.630Z,98078.35
2022-09-22T16:05:01.003Z,98078.94
2022-09-22T16:07:33.382Z,98079.33
2022-09-22T16:10:06.503Z,98072.80
2022-09-22T16:12:42.134Z,98078.25
2022-09-22T16:15:15.288Z,98080.98
2022-09-22T16:17:48.234Z,98083.38
2022-09-22T16:20:21.399Z,98082.26
2022-09-22T16:22:53.655Z,98087.69
2022-09-22T16:25:29.738Z,98092.18
2022-09-22T16:28:02.636Z,98093.41
2022-09-22T16:30:35.002Z,98091.39
2022-09-22T16:33:07.536Z,98092.45
2022-09-22T16:35:39.887Z,98091.95
2022-09-22T16:38:12.086Z,98092.35
2022-09-22T16:40:44.580Z,98094.77
2022-09-22T16:43:16.908Z,98094.94
2022-09-22T16:46:20.168Z,98097.21
2022-09-22T16:48:53.738Z,98096.92
2022-09-22T16:51:24.128Z,98098.05
2022-09-22T16:54:00.737Z,98097.56
2022-09-22T16:56:35.818Z,98102.38
2022-09-22T16:59:08.934Z,98098.59
2022-09-22T17:01:41.366Z,98097.21
2022-09-22T17:04:16.104Z,98097.73
2022-09-22T17:06:50.301Z,98096.32
2022-09-22T17:09:22.997Z,98100.86
2022-09-22T17:11:55.135Z,98103.43
2022-09-22T17:14:29.339Z,98110.00
2022-09-22T17:17:06.665Z,98111.89
2022-09-22T17:19:40.244Z,98114.31
2022-09-22T17:22:13.086Z,98115.36
2022-09-22T17:24:46.336Z,98112.59
2022-09-22T17:27:19.016Z,98107.08
2022-09-22T17:29:51.579Z,98103.38
2022-09-22T17:32:23.943Z,98106.02
2022-09-22T17:34:58.837Z,98102.98
2022-09-22T17:37:31.256Z,98106.58
2022-09-22T17:40:05.602Z,98108.84
2022-09-22T17:42:38.413Z,98109.90
2022-09-22T17:45:13.473Z,98112.06
2022-09-22T17:48:03.773Z,98115.36
2022-09-22T17:50:53.836Z,98117.34
2022-09-22T17:53:43.969Z,98118.48
2022-09-22T17:56:17.120Z,98122.55
2022-09-22T17:58:51.222Z,98135.39
2022-09-22T18:01:26.830Z,98149.41
2022-09-22T18:03:59.876Z,98149.64
2022-09-22T18:06:32.649Z,98150.88
2022-09-22T18:09:11.068Z,98148.04
2022-09-22T18:11:44.658Z,98151.48
2022-09-22T18:14:19.367Z,98148.90
2022-09-22T18:16:53.015Z,98150.92
2022-09-22T18:19:28.290Z,98146.35
2022-09-22T18:22:03.320Z,98142.48
2022-09-22T18:24:36.398Z,98143.94
2022-09-22T18:27:17.987Z,98148.31
2022-09-22T18:29:55.297Z,98144.05
2022-09-22T18:32:37.953Z,98147.70
2022-09-22T18:35:13.149Z,98145.05
2022-09-22T18:37:46.680Z,98149.33
2022-09-22T18:40:21.682Z,98150.71
2022-09-22T18:42:55.711Z,98146.73
2022-09-22T18:45:29.126Z,98153.89
2022-09-22T18:48:03.184Z,98150.23
2022-09-22T18:50:37.276Z,98155.73
2022-09-22T18:53:11.169Z,98156.06
2022-09-22T18:55:47.718Z,98160.02
2022-09-22T18:58:22.965Z,98160.02
2022-09-22T19:00:57.650Z,98159.70
2022-09-22T19:03:31.736Z,98159.54
2022-09-22T19:06:06.229Z,98159.55
2022-09-22T19:08:39.257Z,98154.70
2022-09-22T19:11:14.594Z,98158.30
2022-09-22T19:13:48.178Z,98157.45
2022-09-22T19:16:22.728Z,98156.79
2022-09-22T19:18:54.917Z,98158.51
2022-09-22T19:21:27.629Z,98157.30
2022-09-22T19:23:59.680Z,98156.80
2022-09-22T19:26:32.797Z,98157.06
2022-09-22T19:29:05.609Z,98155.32
2022-09-22T19:31:39.057Z,98154.73
2022-09-22T19:34:10.189Z,98155.46
2022-09-22T19:36:43.625Z,98154.40
2022-09-22T19:39:17.298Z,98150.88
2022-09-22T19:41:49.790Z,98154.61
2022-09-22T19:44:23.939Z,98153.20
2022-09-22T19:46:56.639Z,98151.27
2022-09-22T19:49:29.921Z,98152.82
2022-09-22T19:52:02.270Z,98153.19
2022-09-22T19:54:34.553Z,98150.59
2022-09-22T19:57:07.099Z,98152.85
2022-09-22T19:59:39.377Z,98151.38
2022-09-22T20:02:16.657Z,98153.17
2022-09-22T20:04:49.157Z,98153.04
2022-09-22T20:07:23.248Z,98149.08
2022-09-22T20:09:56.577Z,98148.02
2022-09-22T20:12:29.669Z,98148.52
2022-09-22T20:15:02.157Z,98144.02
2022-09-22T20:17:34.546Z,98144.20
2022-09-22T20:20:09.180Z,98144.88
2022-09-22T20:22:42.417Z,98144.52
2022-09-22T20:25:24.516Z,98148.13
2022-09-22T20:27:57.757Z,98146.77
2022-09-22T20:30:32.231Z,98144.02
2022-09-22T20:33:04.608Z,98144.73
2022-09-22T20:35:39.537Z,98142.33
2022-09-22T20:38:14.359Z,98142.20
2022-09-22T20:40:47.220Z,98139.64
2022-09-22T20:43:19.358Z,98142.44
2022-09-22T20:45:51.543Z,98144.53
2022-09-22T20:48:24.623Z,98140.27
2022-09-22T20:51:02.869Z,98139.92
2022-09-22T20:53:38.338Z,98141.33
2022-09-22T20:56:12.330Z,98138.75
2022-09-22T20:58:46.219Z,98135.98
2022-09-22T21:01:19.608Z,98134.45
2022-09-22T21:03:51.818Z,98133.25
2022-09-22T21:06:24.725Z,98134.14
2022-09-22T21:09:13.980Z,98131.73
2022-09-22T21:11:46.278Z,98131.21
2022-09-22T21:14:19.219Z,98133.29
2022-09-22T21:16:51.800Z,98125.50
2022-09-22T21:19:23.969Z,98121.88
2022-09-22T21:21:56.148Z,98123.95
2022-09-22T21:24:29.100Z,98128.80
2022-09-22T21:27:01.696Z,98127.47
2022-09-22T21:29:33.787Z,98127.15
2022-09-22T21:32:09.529Z,98125.79
2022-09-22T21:34:42.889Z,98128.80
2022-09-22T21:37:15.616Z,98130.87
2022-09-22T21:39:49.138Z,98130.43
2022-09-22T21:42:21.542Z,98129.24
2022-09-22T21:44:53.785Z,98127.00
2022-09-22T21:47:28.860Z,98126.89
2022-09-22T21:50:01.293Z,98126.18
2022-09-22T21:52:33.569Z,98124.66
2022-09-22T21:55:06.661Z,98125.73
2022-09-22T21:57:38.899Z,98123.81
2022-09-22T22:00:12.684Z,98121.23
2022-09-22T22:03:03.719Z,98120.91
2022-09-22T22:05:36.084Z,98119.23
2022-09-22T22:08:08.359Z,98123.55
2022-09-22T22:10:40.577Z,98120.43
2022-09-22T22:13:13.268Z,98117.50
2022-09-22T22:15:46.082Z,98116.14
2022-09-22T22:18:18.867Z,98113.77
2022-09-22T22:20:57.588Z,98114.84
2022-09-22T22:23:30.411Z,98116.15
2022-09-22T22:26:07.710Z,98118.23
2022-09-22T22:28:40.398Z,98116.10
2022-09-22T22:31:14.927Z,98114.48
2022-09-22T22:33:47.751Z,98109.27
2022-09-22T22:36:20.601Z,98109.25
2022-09-22T22:38:55.761Z,98109.77
2022-09-22T22:41:28.445Z,98103.04
2022-09-22T22:44:02.087Z,98101.30
2022-09-22T22:46:32.506Z,98100.60
2022-09-22T22:49:04.695Z,98099.30
2022-09-22T22:51:37.291Z,98095.46
2022-09-22T22:54:11.348Z,98091.70
2022-09-22T22:56:46.801Z,98091.88
2022-09-22T22:59:22.905Z,98092.05
2022-09-22T23:01:55.096Z,98091.70
2022-09-22T23:04:27.578Z,98088.25
2022-09-22T23:06:59.826Z,98087.42
2022-09-22T23:09:32.217Z,98084.33
2022-09-22T23:12:04.887Z,98081.39
2022-09-22T23:14:37.290Z,98082.42
2022-09-22T23:17:09.689Z,98080.77
2022-09-22T23:19:42.508Z,98078.88
2022-09-22T23:22:14.649Z,98079.05
2022-09-22T23:24:47.121Z,98084.08
2022-09-22T23:27:19.463Z,98081.17
2022-09-22T23:29:51.977Z,98077.94
2022-09-22T23:32:24.749Z,98076.74
2022-09-22T23:34:57.270Z,98073.16
2022-09-22T23:37:29.537Z,98075.26
2022-09-22T23:40:02.107Z,98076.11
2022-09-22T23:42:34.581Z,98070.91
2022-09-22T23:45:07.815Z,98068.84
2022-09-22T23:47:40.079Z,98068.84
2022-09-22T23:50:12.897Z,98064.58
2022-09-22T23:52:45.137Z,98068.72
2022-09-22T23:55:17.679Z,98069.95
2022-09-22T23:57:49.849Z,98069.83
